sensor_id;sensor_type;location;lat;lon;timestamp;P1;durP1;ratioP1;P2;durP2;ratioP2
70975;SDS011;58635;51.198;6.010;2023-05-29T00:02:12;8.23;;;3.85;;
70975;SDS011;58635;51.198;6.010;2023-05-29T00:04:37;7.32;;;3.90;;
70975;SDS011;58635;51.198;6.010;2023-05-29T00:07:04;8.15;;;3.92;;
70975;SDS011;58635;51.198;6.010;2023-05-29T00:09:30;6.65;;;3.65;;
70975;SDS011;58635;51.198;6.010;2023-05-29T00:11:55;7.63;;;4.20;;
70975;SDS011;58635;51.198;6.010;2023-05-29T00:14:21;9.45;;;4.18;;
70975;SDS011;58635;51.198;6.010;2023-05-29T00:16:47;7.10;;;3.97;;
70975;SDS011;58635;51.198;6.010;2023-05-29T00:19:14;10.32;;;4.07;;
70975;SDS011;58635;51.198;6.010;2023-05-29T00:21:42;9.38;;;4.53;;
70975;SDS011;58635;51.198;6.010;2023-05-29T00:24:07;9.75;;;4.43;;
70975;SDS011;58635;51.198;6.010;2023-05-29T00:26:33;9.88;;;4.60;;
70975;SDS011;58635;51.198;6.010;2023-05-29T00:28:58;8.38;;;4.47;;
70975;SDS011;58635;51.198;6.010;2023-05-29T00:31:23;7.00;;;3.88;;
70975;SDS011;58635;51.198;6.010;2023-05-29T00:33:49;10.50;;;4.85;;
70975;SDS011;58635;51.198;6.010;2023-05-29T00:36:15;8.30;;;4.30;;
70975;SDS011;58635;51.198;6.010;2023-05-29T00:38:41;8.63;;;4.70;;
70975;SDS011;58635;51.198;6.010;2023-05-29T00:41:06;9.35;;;4.57;;
70975;SDS011;58635;51.198;6.010;2023-05-29T00:43:32;9.07;;;4.63;;
70975;SDS011;58635;51.198;6.010;2023-05-29T00:45:57;7.80;;;4.28;;
70975;SDS011;58635;51.198;6.010;2023-05-29T00:48:23;11.23;;;4.57;;
70975;SDS011;58635;51.198;6.010;2023-05-29T00:50:50;10.25;;;4.07;;
70975;SDS011;58635;51.198;6.010;2023-05-29T00:53:16;8.85;;;4.50;;
70975;SDS011;58635;51.198;6.010;2023-05-29T00:55:41;6.95;;;4.40;;
70975;SDS011;58635;51.198;6.010;2023-05-29T00:58:07;8.40;;;4.40;;
70975;SDS011;58635;51.198;6.010;2023-05-29T01:00:32;8.80;;;4.05;;
70975;SDS011;58635;51.198;6.010;2023-05-29T01:02:59;10.90;;;4.50;;
70975;SDS011;58635;51.198;6.010;2023-05-29T01:05:27;8.80;;;4.90;;
70975;SDS011;58635;51.198;6.010;2023-05-29T01:07:54;9.85;;;4.68;;
70975;SDS011;58635;51.198;6.010;2023-05-29T01:10:19;7.53;;;4.57;;
70975;SDS011;58635;51.198;6.010;2023-05-29T01:12:54;9.20;;;4.63;;
70975;SDS011;58635;51.198;6.010;2023-05-29T01:21:05;8.18;;;4.70;;
70975;SDS011;58635;51.198;6.010;2023-05-29T01:29:10;10.57;;;4.68;;
70975;SDS011;58635;51.198;6.010;2023-05-29T01:31:39;10.80;;;4.90;;
70975;SDS011;58635;51.198;6.010;2023-05-29T01:34:07;9.95;;;4.72;;
70975;SDS011;58635;51.198;6.010;2023-05-29T01:36:32;10.20;;;5.20;;
70975;SDS011;58635;51.198;6.010;2023-05-29T01:38:58;8.85;;;4.85;;
70975;SDS011;58635;51.198;6.010;2023-05-29T01:41:25;8.38;;;4.63;;
70975;SDS011;58635;51.198;6.010;2023-05-29T01:43:51;8.80;;;4.85;;
70975;SDS011;58635;51.198;6.010;2023-05-29T01:46:18;8.55;;;5.18;;
70975;SDS011;58635;51.198;6.010;2023-05-29T01:48:45;11.63;;;5.15;;
70975;SDS011;58635;51.198;6.010;2023-05-29T01:51:12;9.75;;;4.95;;
70975;SDS011;58635;51.198;6.010;2023-05-29T01:53:38;9.77;;;5.30;;
70975;SDS011;58635;51.198;6.010;2023-05-29T01:56:05;9.93;;;4.78;;
70975;SDS011;58635;51.198;6.010;2023-05-29T01:58:31;10.43;;;4.93;;
70975;SDS011;58635;51.198;6.010;2023-05-29T02:00:59;8.30;;;4.53;;
70975;SDS011;58635;51.198;6.010;2023-05-29T02:03:25;12.43;;;4.60;;
70975;SDS011;58635;51.198;6.010;2023-05-29T02:05:53;10.68;;;4.75;;
70975;SDS011;58635;51.198;6.010;2023-05-29T02:08:20;10.45;;;4.60;;
70975;SDS011;58635;51.198;6.010;2023-05-29T02:10:45;11.45;;;4.70;;
70975;SDS011;58635;51.198;6.010;2023-05-29T02:13:11;11.60;;;4.40;;
70975;SDS011;58635;51.198;6.010;2023-05-29T02:15:36;11.45;;;4.78;;
70975;SDS011;58635;51.198;6.010;2023-05-29T02:18:01;9.77;;;3.95;;
70975;SDS011;58635;51.198;6.010;2023-05-29T02:20:27;11.20;;;4.43;;
70975;SDS011;58635;51.198;6.010;2023-05-29T02:22:52;11.07;;;4.60;;
70975;SDS011;58635;51.198;6.010;2023-05-29T02:25:18;12.80;;;4.32;;
70975;SDS011;58635;51.198;6.010;2023-05-29T02:27:44;10.05;;;4.05;;
70975;SDS011;58635;51.198;6.010;2023-05-29T02:30:09;11.98;;;4.47;;
70975;SDS011;58635;51.198;6.010;2023-05-29T02:32:35;8.77;;;4.10;;
70975;SDS011;58635;51.198;6.010;2023-05-29T02:35:01;11.60;;;4.57;;
70975;SDS011;58635;51.198;6.010;2023-05-29T02:37:27;11.63;;;4.00;;
70975;SDS011;58635;51.198;6.010;2023-05-29T02:39:53;10.68;;;4.25;;
70975;SDS011;58635;51.198;6.010;2023-05-29T02:42:18;9.93;;;4.25;;
70975;SDS011;58635;51.198;6.010;2023-05-29T02:44:43;9.27;;;3.85;;
70975;SDS011;58635;51.198;6.010;2023-05-29T02:47:09;16.33;;;4.13;;
70975;SDS011;58635;51.198;6.010;2023-05-29T02:49:34;11.77;;;3.45;;
70975;SDS011;58635;51.198;6.010;2023-05-29T02:52:00;13.13;;;3.67;;
70975;SDS011;58635;51.198;6.010;2023-05-29T02:54:25;11.07;;;3.95;;
70975;SDS011;58635;51.198;6.010;2023-05-29T02:56:51;13.07;;;4.35;;
70975;SDS011;58635;51.198;6.010;2023-05-29T02:59:17;11.48;;;3.90;;
70975;SDS011;58635;51.198;6.010;2023-05-29T03:01:42;10.85;;;3.60;;
70975;SDS011;58635;51.198;6.010;2023-05-29T03:04:09;9.35;;;3.85;;
70975;SDS011;58635;51.198;6.010;2023-05-29T03:06:35;9.82;;;3.70;;
70975;SDS011;58635;51.198;6.010;2023-05-29T03:09:02;11.60;;;3.60;;
70975;SDS011;58635;51.198;6.010;2023-05-29T03:11:29;10.23;;;3.42;;
70975;SDS011;58635;51.198;6.010;2023-05-29T03:13:55;8.75;;;3.25;;
70975;SDS011;58635;51.198;6.010;2023-05-29T03:16:21;9.35;;;3.20;;
70975;SDS011;58635;51.198;6.010;2023-05-29T03:18:46;11.30;;;3.45;;
70975;SDS011;58635;51.198;6.010;2023-05-29T03:21:12;9.45;;;3.13;;
70975;SDS011;58635;51.198;6.010;2023-05-29T03:23:37;10.32;;;3.60;;
70975;SDS011;58635;51.198;6.010;2023-05-29T03:26:03;11.55;;;3.65;;
70975;SDS011;58635;51.198;6.010;2023-05-29T03:28:30;11.02;;;3.50;;
70975;SDS011;58635;51.198;6.010;2023-05-29T03:30:56;12.80;;;3.85;;
70975;SDS011;58635;51.198;6.010;2023-05-29T03:33:21;11.15;;;3.15;;
70975;SDS011;58635;51.198;6.010;2023-05-29T03:35:47;10.07;;;3.35;;
70975;SDS011;58635;51.198;6.010;2023-05-29T03:38:12;11.65;;;3.28;;
70975;SDS011;58635;51.198;6.010;2023-05-29T03:40:38;10.95;;;3.33;;
70975;SDS011;58635;51.198;6.010;2023-05-29T03:43:03;13.05;;;3.58;;
70975;SDS011;58635;51.198;6.010;2023-05-29T03:45:28;10.73;;;3.10;;
70975;SDS011;58635;51.198;6.010;2023-05-29T03:47:54;12.88;;;3.47;;
70975;SDS011;58635;51.198;6.010;2023-05-29T03:50:20;11.40;;;3.00;;
70975;SDS011;58635;51.198;6.010;2023-05-29T03:52:45;11.48;;;3.50;;
70975;SDS011;58635;51.198;6.010;2023-05-29T03:55:11;11.18;;;3.47;;
70975;SDS011;58635;51.198;6.010;2023-05-29T03:57:41;17.23;;;3.83;;
70975;SDS011;58635;51.198;6.010;2023-05-29T04:00:09;11.98;;;3.33;;
70975;SDS011;58635;51.198;6.010;2023-05-29T04:02:37;12.00;;;3.50;;
70975;SDS011;58635;51.198;6.010;2023-05-29T04:05:03;12.10;;;3.05;;
70975;SDS011;58635;51.198;6.010;2023-05-29T04:07:31;14.48;;;3.55;;
70975;SDS011;58635;51.198;6.010;2023-05-29T04:09:57;13.25;;;3.58;;
70975;SDS011;58635;51.198;6.010;2023-05-29T04:12:22;11.18;;;3.13;;
70975;SDS011;58635;51.198;6.010;2023-05-29T04:14:48;14.20;;;3.55;;
70975;SDS011;58635;51.198;6.010;2023-05-29T04:17:13;13.40;;;3.10;;
70975;SDS011;58635;51.198;6.010;2023-05-29T04:19:38;11.73;;;3.13;;
70975;SDS011;58635;51.198;6.010;2023-05-29T04:22:04;12.02;;;3.08;;
70975;SDS011;58635;51.198;6.010;2023-05-29T04:24:29;13.45;;;3.42;;
70975;SDS011;58635;51.198;6.010;2023-05-29T04:26:56;15.27;;;3.08;;
70975;SDS011;58635;51.198;6.010;2023-05-29T04:29:22;12.15;;;2.95;;
70975;SDS011;58635;51.198;6.010;2023-05-29T04:31:48;11.95;;;2.90;;
70975;SDS011;58635;51.198;6.010;2023-05-29T04:34:13;12.98;;;3.50;;
70975;SDS011;58635;51.198;6.010;2023-05-29T04:36:41;14.52;;;3.55;;
70975;SDS011;58635;51.198;6.010;2023-05-29T04:39:08;14.48;;;3.88;;
70975;SDS011;58635;51.198;6.010;2023-05-29T04:41:34;11.27;;;3.05;;
70975;SDS011;58635;51.198;6.010;2023-05-29T04:44:00;12.60;;;3.28;;
70975;SDS011;58635;51.198;6.010;2023-05-29T04:46:26;12.13;;;3.20;;
70975;SDS011;58635;51.198;6.010;2023-05-29T04:48:52;12.93;;;3.00;;
70975;SDS011;58635;51.198;6.010;2023-05-29T04:51:22;15.13;;;3.38;;
70975;SDS011;58635;51.198;6.010;2023-05-29T04:53:48;10.82;;;2.88;;
70975;SDS011;58635;51.198;6.010;2023-05-29T04:56:16;14.80;;;3.47;;
70975;SDS011;58635;51.198;6.010;2023-05-29T04:58:43;13.23;;;3.10;;
70975;SDS011;58635;51.198;6.010;2023-05-29T05:01:08;9.48;;;3.03;;
70975;SDS011;58635;51.198;6.010;2023-05-29T05:03:34;12.48;;;2.90;;
70975;SDS011;58635;51.198;6.010;2023-05-29T05:06:00;15.45;;;3.10;;
70975;SDS011;58635;51.198;6.010;2023-05-29T05:08:27;14.50;;;3.08;;
70975;SDS011;58635;51.198;6.010;2023-05-29T05:10:54;14.52;;;3.45;;
70975;SDS011;58635;51.198;6.010;2023-05-29T05:13:20;12.10;;;2.95;;
70975;SDS011;58635;51.198;6.010;2023-05-29T05:15:45;11.05;;;3.63;;
70975;SDS011;58635;51.198;6.010;2023-05-29T05:18:11;13.15;;;3.58;;
70975;SDS011;58635;51.198;6.010;2023-05-29T05:20:36;14.13;;;3.35;;
70975;SDS011;58635;51.198;6.010;2023-05-29T05:23:01;9.15;;;2.70;;
70975;SDS011;58635;51.198;6.010;2023-05-29T05:25:27;11.80;;;2.90;;
70975;SDS011;58635;51.198;6.010;2023-05-29T05:27:52;14.32;;;3.13;;
70975;SDS011;58635;51.198;6.010;2023-05-29T05:30:18;12.30;;;2.95;;
70975;SDS011;58635;51.198;6.010;2023-05-29T05:32:43;15.07;;;3.10;;
70975;SDS011;58635;51.198;6.010;2023-05-29T05:35:09;8.55;;;2.53;;
70975;SDS011;58635;51.198;6.010;2023-05-29T05:37:36;14.77;;;3.53;;
70975;SDS011;58635;51.198;6.010;2023-05-29T05:40:02;13.80;;;2.78;;
70975;SDS011;58635;51.198;6.010;2023-05-29T05:42:28;10.93;;;3.03;;
70975;SDS011;58635;51.198;6.010;2023-05-29T05:44:54;10.65;;;3.13;;
70975;SDS011;58635;51.198;6.010;2023-05-29T05:47:19;10.40;;;2.80;;
70975;SDS011;58635;51.198;6.010;2023-05-29T05:49:45;15.77;;;3.30;;
70975;SDS011;58635;51.198;6.010;2023-05-29T05:52:10;11.32;;;2.92;;
70975;SDS011;58635;51.198;6.010;2023-05-29T05:54:36;13.60;;;3.67;;
70975;SDS011;58635;51.198;6.010;2023-05-29T05:57:01;13.52;;;3.00;;
70975;SDS011;58635;51.198;6.010;2023-05-29T05:59:28;11.55;;;3.38;;
70975;SDS011;58635;51.198;6.010;2023-05-29T06:01:53;14.55;;;2.70;;
70975;SDS011;58635;51.198;6.010;2023-05-29T06:04:19;13.27;;;3.22;;
70975;SDS011;58635;51.198;6.010;2023-05-29T06:06:44;10.10;;;2.67;;
70975;SDS011;58635;51.198;6.010;2023-05-29T06:09:09;10.65;;;2.60;;
70975;SDS011;58635;51.198;6.010;2023-05-29T06:11:36;13.57;;;2.88;;
70975;SDS011;58635;51.198;6.010;2023-05-29T06:14:02;15.00;;;3.47;;
70975;SDS011;58635;51.198;6.010;2023-05-29T06:16:28;12.80;;;3.00;;
70975;SDS011;58635;51.198;6.010;2023-05-29T06:18:53;14.35;;;2.80;;
70975;SDS011;58635;51.198;6.010;2023-05-29T06:21:19;12.43;;;3.05;;
70975;SDS011;58635;51.198;6.010;2023-05-29T06:23:45;11.88;;;2.97;;
70975;SDS011;58635;51.198;6.010;2023-05-29T06:26:10;15.38;;;2.90;;
70975;SDS011;58635;51.198;6.010;2023-05-29T06:28:37;12.57;;;2.58;;
70975;SDS011;58635;51.198;6.010;2023-05-29T06:31:02;14.63;;;2.97;;
70975;SDS011;58635;51.198;6.010;2023-05-29T06:33:28;9.30;;;3.03;;
70975;SDS011;58635;51.198;6.010;2023-05-29T06:35:54;12.15;;;2.80;;
70975;SDS011;58635;51.198;6.010;2023-05-29T06:38:20;9.52;;;3.10;;
70975;SDS011;58635;51.198;6.010;2023-05-29T06:40:45;10.77;;;2.90;;
70975;SDS011;58635;51.198;6.010;2023-05-29T06:43:11;12.52;;;2.95;;
70975;SDS011;58635;51.198;6.010;2023-05-29T06:45:37;13.93;;;3.40;;
70975;SDS011;58635;51.198;6.010;2023-05-29T06:48:02;10.80;;;3.22;;
70975;SDS011;58635;51.198;6.010;2023-05-29T06:50:28;9.27;;;2.55;;
70975;SDS011;58635;51.198;6.010;2023-05-29T06:52:53;12.68;;;3.50;;
70975;SDS011;58635;51.198;6.010;2023-05-29T06:55:19;13.50;;;3.40;;
70975;SDS011;58635;51.198;6.010;2023-05-29T06:57:44;11.60;;;3.00;;
70975;SDS011;58635;51.198;6.010;2023-05-29T07:00:10;9.82;;;2.75;;
70975;SDS011;58635;51.198;6.010;2023-05-29T07:02:36;11.48;;;2.80;;
70975;SDS011;58635;51.198;6.010;2023-05-29T07:05:02;12.10;;;3.25;;
70975;SDS011;58635;51.198;6.010;2023-05-29T07:07:28;9.35;;;2.72;;
70975;SDS011;58635;51.198;6.010;2023-05-29T07:09:54;11.13;;;3.00;;
70975;SDS011;58635;51.198;6.010;2023-05-29T07:12:21;11.30;;;2.70;;
70975;SDS011;58635;51.198;6.010;2023-05-29T07:14:47;11.23;;;3.17;;
70975;SDS011;58635;51.198;6.010;2023-05-29T07:17:13;8.02;;;2.58;;
70975;SDS011;58635;51.198;6.010;2023-05-29T07:19:39;11.25;;;2.85;;
70975;SDS011;58635;51.198;6.010;2023-05-29T07:22:05;10.05;;;2.53;;
70975;SDS011;58635;51.198;6.010;2023-05-29T07:24:30;10.60;;;2.80;;
70975;SDS011;58635;51.198;6.010;2023-05-29T07:26:56;11.85;;;2.95;;
70975;SDS011;58635;51.198;6.010;2023-05-29T07:29:21;11.45;;;2.85;;
70975;SDS011;58635;51.198;6.010;2023-05-29T07:31:48;8.80;;;2.78;;
70975;SDS011;58635;51.198;6.010;2023-05-29T07:34:14;11.60;;;3.03;;
70975;SDS011;58635;51.198;6.010;2023-05-29T07:36:56;13.55;;;3.20;;
70975;SDS011;58635;51.198;6.010;2023-05-29T07:39:23;9.48;;;3.42;;
70975;SDS011;58635;51.198;6.010;2023-05-29T07:41:49;13.63;;;3.20;;
70975;SDS011;58635;51.198;6.010;2023-05-29T07:44:15;18.20;;;3.22;;
70975;SDS011;58635;51.198;6.010;2023-05-29T07:46:40;11.65;;;2.58;;
70975;SDS011;58635;51.198;6.010;2023-05-29T07:49:06;8.98;;;2.88;;
70975;SDS011;58635;51.198;6.010;2023-05-29T07:51:31;15.07;;;3.30;;
70975;SDS011;58635;51.198;6.010;2023-05-29T07:53:57;10.75;;;3.17;;
70975;SDS011;58635;51.198;6.010;2023-05-29T07:56:22;12.57;;;3.00;;
70975;SDS011;58635;51.198;6.010;2023-05-29T07:58:48;9.63;;;2.67;;
70975;SDS011;58635;51.198;6.010;2023-05-29T08:01:13;14.32;;;2.65;;
70975;SDS011;58635;51.198;6.010;2023-05-29T08:03:41;10.35;;;2.97;;
70975;SDS011;58635;51.198;6.010;2023-05-29T08:06:06;10.00;;;2.60;;
70975;SDS011;58635;51.198;6.010;2023-05-29T08:08:32;11.65;;;3.05;;
70975;SDS011;58635;51.198;6.010;2023-05-29T08:10:57;13.15;;;3.20;;
70975;SDS011;58635;51.198;6.010;2023-05-29T08:13:23;11.70;;;2.80;;
70975;SDS011;58635;51.198;6.010;2023-05-29T08:15:48;10.85;;;2.97;;
70975;SDS011;58635;51.198;6.010;2023-05-29T08:18:14;10.90;;;2.67;;
70975;SDS011;58635;51.198;6.010;2023-05-29T08:20:39;12.88;;;3.13;;
70975;SDS011;58635;51.198;6.010;2023-05-29T08:23:05;11.00;;;2.97;;
70975;SDS011;58635;51.198;6.010;2023-05-29T08:25:30;14.20;;;3.50;;
70975;SDS011;58635;51.198;6.010;2023-05-29T08:27:56;8.35;;;2.80;;
70975;SDS011;58635;51.198;6.010;2023-05-29T08:30:21;13.60;;;3.13;;
70975;SDS011;58635;51.198;6.010;2023-05-29T08:32:46;11.68;;;2.92;;
70975;SDS011;58635;51.198;6.010;2023-05-29T08:35:12;13.75;;;3.38;;
70975;SDS011;58635;51.198;6.010;2023-05-29T08:37:38;11.00;;;3.03;;
70975;SDS011;58635;51.198;6.010;2023-05-29T08:40:03;9.20;;;2.97;;
70975;SDS011;58635;51.198;6.010;2023-05-29T08:42:33;9.65;;;2.90;;
70975;SDS011;58635;51.198;6.010;2023-05-29T08:45:20;9.40;;;2.92;;
70975;SDS011;58635;51.198;6.010;2023-05-29T08:47:49;11.18;;;3.40;;
70975;SDS011;58635;51.198;6.010;2023-05-29T08:50:19;8.75;;;2.70;;
70975;SDS011;58635;51.198;6.010;2023-05-29T08:52:46;10.32;;;3.33;;
70975;SDS011;58635;51.198;6.010;2023-05-29T08:55:12;9.95;;;3.13;;
70975;SDS011;58635;51.198;6.010;2023-05-29T08:57:37;12.68;;;2.88;;
70975;SDS011;58635;51.198;6.010;2023-05-29T09:00:04;9.98;;;2.63;;
70975;SDS011;58635;51.198;6.010;2023-05-29T09:02:37;11.52;;;2.90;;
70975;SDS011;58635;51.198;6.010;2023-05-29T09:05:06;13.90;;;3.25;;
70975;SDS011;58635;51.198;6.010;2023-05-29T09:07:32;12.18;;;3.20;;
70975;SDS011;58635;51.198;6.010;2023-05-29T09:09:59;11.48;;;2.90;;
70975;SDS011;58635;51.198;6.010;2023-05-29T09:12:25;13.00;;;3.42;;
70975;SDS011;58635;51.198;6.010;2023-05-29T09:14:51;10.68;;;3.92;;
70975;SDS011;58635;51.198;6.010;2023-05-29T09:17:16;11.48;;;2.85;;
70975;SDS011;58635;51.198;6.010;2023-05-29T09:19:42;13.68;;;3.10;;
70975;SDS011;58635;51.198;6.010;2023-05-29T09:22:08;11.70;;;2.88;;
70975;SDS011;58635;51.198;6.010;2023-05-29T09:24:42;11.80;;;2.90;;
70975;SDS011;58635;51.198;6.010;2023-05-29T09:27:11;12.23;;;3.08;;
70975;SDS011;58635;51.198;6.010;2023-05-29T09:29:40;9.77;;;3.08;;
70975;SDS011;58635;51.198;6.010;2023-05-29T09:32:17;8.68;;;2.65;;
70975;SDS011;58635;51.198;6.010;2023-05-29T09:34:43;9.93;;;2.65;;
70975;SDS011;58635;51.198;6.010;2023-05-29T09:37:09;10.70;;;2.90;;
70975;SDS011;58635;51.198;6.010;2023-05-29T09:42:11;12.25;;;2.92;;
70975;SDS011;58635;51.198;6.010;2023-05-29T09:44:37;10.10;;;3.08;;
70975;SDS011;58635;51.198;6.010;2023-05-29T09:47:02;12.40;;;3.42;;
70975;SDS011;58635;51.198;6.010;2023-05-29T09:49:29;10.68;;;3.20;;
70975;SDS011;58635;51.198;6.010;2023-05-29T09:51:57;12.13;;;2.85;;
70975;SDS011;58635;51.198;6.010;2023-05-29T09:54:24;10.00;;;2.50;;
70975;SDS011;58635;51.198;6.010;2023-05-29T09:56:54;11.88;;;3.10;;
70975;SDS011;58635;51.198;6.010;2023-05-29T09:59:21;9.63;;;3.00;;
70975;SDS011;58635;51.198;6.010;2023-05-29T10:01:49;10.32;;;3.10;;
70975;SDS011;58635;51.198;6.010;2023-05-29T10:04:30;12.30;;;3.13;;
70975;SDS011;58635;51.198;6.010;2023-05-29T10:06:57;11.38;;;3.03;;
70975;SDS011;58635;51.198;6.010;2023-05-29T10:09:27;11.32;;;2.90;;
70975;SDS011;58635;51.198;6.010;2023-05-29T10:11:53;11.27;;;2.83;;
70975;SDS011;58635;51.198;6.010;2023-05-29T10:14:23;11.77;;;3.33;;
70975;SDS011;58635;51.198;6.010;2023-05-29T10:16:50;9.30;;;2.50;;
70975;SDS011;58635;51.198;6.010;2023-05-29T10:19:21;11.95;;;2.78;;
70975;SDS011;58635;51.198;6.010;2023-05-29T10:21:50;8.32;;;2.80;;
70975;SDS011;58635;51.198;6.010;2023-05-29T10:24:18;8.98;;;2.50;;
70975;SDS011;58635;51.198;6.010;2023-05-29T10:26:44;12.35;;;2.70;;
70975;SDS011;58635;51.198;6.010;2023-05-29T10:37:40;10.70;;;3.10;;
70975;SDS011;58635;51.198;6.010;2023-05-29T10:40:11;10.82;;;2.70;;
70975;SDS011;58635;51.198;6.010;2023-05-29T10:42:50;8.48;;;2.92;;
70975;SDS011;58635;51.198;6.010;2023-05-29T10:50:41;8.30;;;2.90;;
70975;SDS011;58635;51.198;6.010;2023-05-29T10:53:14;8.23;;;2.72;;
70975;SDS011;58635;51.198;6.010;2023-05-29T10:55:42;9.27;;;2.85;;
70975;SDS011;58635;51.198;6.010;2023-05-29T10:58:14;10.50;;;3.00;;
70975;SDS011;58635;51.198;6.010;2023-05-29T11:00:43;8.15;;;2.53;;
70975;SDS011;58635;51.198;6.010;2023-05-29T11:03:11;8.20;;;2.63;;
70975;SDS011;58635;51.198;6.010;2023-05-29T11:08:47;8.35;;;2.78;;
70975;SDS011;58635;51.198;6.010;2023-05-29T11:13:53;8.45;;;2.67;;
70975;SDS011;58635;51.198;6.010;2023-05-29T11:18:54;9.35;;;2.28;;
70975;SDS011;58635;51.198;6.010;2023-05-29T11:24:09;9.52;;;2.88;;
70975;SDS011;58635;51.198;6.010;2023-05-29T11:26:45;8.98;;;2.67;;
70975;SDS011;58635;51.198;6.010;2023-05-29T11:29:12;9.90;;;2.95;;
70975;SDS011;58635;51.198;6.010;2023-05-29T11:31:39;7.97;;;2.50;;
70975;SDS011;58635;51.198;6.010;2023-05-29T11:34:06;10.75;;;2.80;;
70975;SDS011;58635;51.198;6.010;2023-05-29T11:36:35;9.38;;;2.72;;
70975;SDS011;58635;51.198;6.010;2023-05-29T11:39:02;7.93;;;2.95;;
70975;SDS011;58635;51.198;6.010;2023-05-29T11:41:28;8.93;;;2.33;;
70975;SDS011;58635;51.198;6.010;2023-05-29T11:44:01;7.07;;;2.45;;
70975;SDS011;58635;51.198;6.010;2023-05-29T11:46:30;7.80;;;2.70;;
70975;SDS011;58635;51.198;6.010;2023-05-29T11:48:57;8.52;;;2.75;;
70975;SDS011;58635;51.198;6.010;2023-05-29T11:51:23;8.02;;;2.58;;
70975;SDS011;58635;51.198;6.010;2023-05-29T11:53:49;9.02;;;2.80;;
70975;SDS011;58635;51.198;6.010;2023-05-29T11:56:18;7.47;;;3.13;;
70975;SDS011;58635;51.198;6.010;2023-05-29T11:58:44;10.27;;;2.80;;
70975;SDS011;58635;51.198;6.010;2023-05-29T12:01:09;8.35;;;2.97;;
70975;SDS011;58635;51.198;6.010;2023-05-29T12:03:39;11.30;;;2.97;;
70975;SDS011;58635;51.198;6.010;2023-05-29T12:06:06;11.82;;;2.60;;
70975;SDS011;58635;51.198;6.010;2023-05-29T12:08:32;12.55;;;2.90;;
70975;SDS011;58635;51.198;6.010;2023-05-29T12:10:58;7.20;;;2.60;;
70975;SDS011;58635;51.198;6.010;2023-05-29T12:13:23;11.40;;;2.95;;
70975;SDS011;58635;51.198;6.010;2023-05-29T12:15:49;8.32;;;2.38;;
70975;SDS011;58635;51.198;6.010;2023-05-29T12:18:19;6.75;;;2.67;;
70975;SDS011;58635;51.198;6.010;2023-05-29T12:20:45;9.60;;;2.88;;
70975;SDS011;58635;51.198;6.010;2023-05-29T12:23:10;9.00;;;2.47;;
70975;SDS011;58635;51.198;6.010;2023-05-29T12:25:39;7.45;;;2.22;;
70975;SDS011;58635;51.198;6.010;2023-05-29T12:28:05;11.88;;;2.53;;
70975;SDS011;58635;51.198;6.010;2023-05-29T12:30:31;6.43;;;2.17;;
70975;SDS011;58635;51.198;6.010;2023-05-29T12:33:02;7.80;;;2.40;;
70975;SDS011;58635;51.198;6.010;2023-05-29T12:35:28;8.93;;;3.05;;
70975;SDS011;58635;51.198;6.010;2023-05-29T12:42:54;7.82;;;2.35;;
70975;SDS011;58635;51.198;6.010;2023-05-29T12:45:21;10.25;;;2.50;;
70975;SDS011;58635;51.198;6.010;2023-05-29T12:47:53;7.88;;;2.60;;
70975;SDS011;58635;51.198;6.010;2023-05-29T12:50:27;11.40;;;2.88;;
70975;SDS011;58635;51.198;6.010;2023-05-29T12:52:59;9.68;;;2.63;;
70975;SDS011;58635;51.198;6.010;2023-05-29T12:55:27;8.48;;;2.78;;
70975;SDS011;58635;51.198;6.010;2023-05-29T12:57:53;8.25;;;2.60;;
70975;SDS011;58635;51.198;6.010;2023-05-29T13:00:20;9.38;;;2.63;;
70975;SDS011;58635;51.198;6.010;2023-05-29T13:02:47;8.98;;;2.75;;
70975;SDS011;58635;51.198;6.010;2023-05-29T13:05:13;7.97;;;2.70;;
70975;SDS011;58635;51.198;6.010;2023-05-29T13:07:40;7.97;;;2.38;;
70975;SDS011;58635;51.198;6.010;2023-05-29T13:10:06;9.48;;;2.67;;
70975;SDS011;58635;51.198;6.010;2023-05-29T13:12:32;8.27;;;2.83;;
70975;SDS011;58635;51.198;6.010;2023-05-29T13:14:58;7.47;;;2.60;;
70975;SDS011;58635;51.198;6.010;2023-05-29T13:17:23;8.73;;;2.42;;
70975;SDS011;58635;51.198;6.010;2023-05-29T13:19:48;7.55;;;2.65;;
70975;SDS011;58635;51.198;6.010;2023-05-29T13:22:15;8.40;;;2.78;;
70975;SDS011;58635;51.198;6.010;2023-05-29T13:24:41;6.53;;;2.47;;
70975;SDS011;58635;51.198;6.010;2023-05-29T13:27:06;8.27;;;2.60;;
70975;SDS011;58635;51.198;6.010;2023-05-29T13:29:32;7.68;;;2.42;;
70975;SDS011;58635;51.198;6.010;2023-05-29T13:31:58;7.13;;;2.45;;
70975;SDS011;58635;51.198;6.010;2023-05-29T13:34:24;6.20;;;2.50;;
70975;SDS011;58635;51.198;6.010;2023-05-29T13:36:53;8.23;;;2.42;;
70975;SDS011;58635;51.198;6.010;2023-05-29T13:39:21;7.10;;;2.63;;
70975;SDS011;58635;51.198;6.010;2023-05-29T13:41:47;9.02;;;2.80;;
70975;SDS011;58635;51.198;6.010;2023-05-29T13:44:12;5.38;;;2.22;;
70975;SDS011;58635;51.198;6.010;2023-05-29T13:46:38;4.80;;;1.85;;
70975;SDS011;58635;51.198;6.010;2023-05-29T13:49:03;5.82;;;2.28;;
70975;SDS011;58635;51.198;6.010;2023-05-29T13:51:29;8.63;;;2.85;;
70975;SDS011;58635;51.198;6.010;2023-05-29T13:53:54;8.90;;;2.40;;
70975;SDS011;58635;51.198;6.010;2023-05-29T13:56:20;9.07;;;2.83;;
70975;SDS011;58635;51.198;6.010;2023-05-29T13:58:45;6.43;;;2.42;;
70975;SDS011;58635;51.198;6.010;2023-05-29T14:01:10;6.22;;;2.30;;
70975;SDS011;58635;51.198;6.010;2023-05-29T14:03:36;6.40;;;2.28;;
70975;SDS011;58635;51.198;6.010;2023-05-29T14:06:01;7.50;;;2.33;;
70975;SDS011;58635;51.198;6.010;2023-05-29T14:08:30;7.05;;;2.72;;
70975;SDS011;58635;51.198;6.010;2023-05-29T14:10:55;5.60;;;2.30;;
70975;SDS011;58635;51.198;6.010;2023-05-29T14:13:20;8.15;;;2.80;;
70975;SDS011;58635;51.198;6.010;2023-05-29T14:15:46;7.63;;;2.53;;
70975;SDS011;58635;51.198;6.010;2023-05-29T14:18:13;8.30;;;3.30;;
70975;SDS011;58635;51.198;6.010;2023-05-29T14:20:39;8.32;;;2.70;;
70975;SDS011;58635;51.198;6.010;2023-05-29T14:23:04;8.40;;;2.58;;
70975;SDS011;58635;51.198;6.010;2023-05-29T14:25:30;8.30;;;2.55;;
70975;SDS011;58635;51.198;6.010;2023-05-29T14:27:55;11.35;;;3.25;;
70975;SDS011;58635;51.198;6.010;2023-05-29T14:30:21;7.13;;;2.50;;
70975;SDS011;58635;51.198;6.010;2023-05-29T14:32:46;10.52;;;2.60;;
70975;SDS011;58635;51.198;6.010;2023-05-29T14:35:12;8.35;;;2.67;;
70975;SDS011;58635;51.198;6.010;2023-05-29T14:37:37;10.95;;;2.80;;
70975;SDS011;58635;51.198;6.010;2023-05-29T14:40:03;8.57;;;2.70;;
70975;SDS011;58635;51.198;6.010;2023-05-29T14:42:28;11.50;;;3.30;;
70975;SDS011;58635;51.198;6.010;2023-05-29T14:44:54;11.60;;;2.97;;
70975;SDS011;58635;51.198;6.010;2023-05-29T14:47:20;8.30;;;2.63;;
70975;SDS011;58635;51.198;6.010;2023-05-29T14:49:45;9.45;;;2.72;;
70975;SDS011;58635;51.198;6.010;2023-05-29T14:52:11;8.80;;;2.33;;
70975;SDS011;58635;51.198;6.010;2023-05-29T14:54:36;10.27;;;3.15;;
70975;SDS011;58635;51.198;6.010;2023-05-29T14:57:01;11.00;;;2.92;;
70975;SDS011;58635;51.198;6.010;2023-05-29T14:59:27;8.05;;;2.58;;
70975;SDS011;58635;51.198;6.010;2023-05-29T15:01:52;8.18;;;2.80;;
70975;SDS011;58635;51.198;6.010;2023-05-29T15:04:19;7.45;;;2.72;;
70975;SDS011;58635;51.198;6.010;2023-05-29T15:06:44;9.52;;;2.95;;
70975;SDS011;58635;51.198;6.010;2023-05-29T15:09:10;8.70;;;2.80;;
70975;SDS011;58635;51.198;6.010;2023-05-29T15:11:36;9.30;;;2.72;;
70975;SDS011;58635;51.198;6.010;2023-05-29T15:14:01;8.57;;;2.75;;
70975;SDS011;58635;51.198;6.010;2023-05-29T15:16:26;11.90;;;2.88;;
70975;SDS011;58635;51.198;6.010;2023-05-29T15:18:52;7.53;;;2.65;;
70975;SDS011;58635;51.198;6.010;2023-05-29T15:21:18;12.43;;;2.88;;